Time;durP1;ratioP1;P1;durP2;ratioP2;P2;SDS_P1;SDS_P2;PMS_P1;PMS_P2;Temp;Humidity;BMP_temperature;BMP_pressure;BME280_temperature;BME280_humidity;BME280_pressure;Samples;Min_cycle;Max_cycle;Signal;HPM_P1;HPM_P2
2021/03/21 00:02:04;;;;;;;59.50;29.38;;;3.70;99.90;;;;;;5010031;28;20140;-81
2021/03/21 00:04:30;;;;;;;64.20;34.65;;;3.80;99.90;;;;;;5010923;28;20050;-80
2021/03/21 00:06:56;;;;;;;67.35;35.17;;;3.80;99.90;;;;;;4994235;28;20141;-79
2021/03/21 00:09:23;;;;;;;61.97;32.28;;;3.80;99.90;;;;;;5026619;28;20061;-79
2021/03/21 00:11:49;;;;;;;66.38;35.70;;;3.80;99.90;;;;;;5010680;28;20054;-80
2021/03/21 00:14:15;;;;;;;67.70;36.08;;;3.80;99.90;;;;;;4990937;28;20435;-79
2021/03/21 00:16:42;;;;;;;59.38;31.73;;;3.80;99.90;;;;;;5017371;28;20077;-80
2021/03/21 00:19:10;;;;;;;65.43;31.85;;;3.90;99.90;;;;;;4998486;28;20077;-79
2021/03/21 00:21:37;;;;;;;56.00;28.67;;;3.80;99.90;;;;;;4998090;28;20060;-79
2021/03/21 00:24:04;;;;;;;52.70;26.25;;;3.80;99.90;;;;;;5014757;28;20053;-79
2021/03/21 00:26:31;;;;;;;60.47;31.92;;;3.80;99.90;;;;;;4998027;28;20076;-78
2021/03/21 00:28:59;;;;;;;73.68;33.85;;;3.80;99.90;;;;;;4998279;28;20080;-79
2021/03/21 00:31:26;;;;;;;54.85;27.00;;;3.80;99.90;;;;;;4997767;28;20077;-78
2021/03/21 00:33:52;;;;;;;55.55;28.52;;;3.80;99.90;;;;;;5014415;28;20104;-78
2021/03/21 00:36:19;;;;;;;60.75;29.92;;;3.80;99.90;;;;;;5012858;28;20057;-77
2021/03/21 00:38:51;;;;;;;56.40;26.90;;;3.80;99.90;;;;;;5030692;28;20106;-78
2021/03/21 00:41:20;;;;;;;31.63;17.15;;;3.80;99.90;;;;;;4996807;28;20080;-78
2021/03/21 00:43:47;;;;;;;49.17;26.50;;;3.80;99.90;;;;;;4997796;28;20149;-78
2021/03/21 00:46:14;;;;;;;58.15;27.23;;;3.80;99.90;;;;;;4995840;28;20073;-78
2021/03/21 00:48:43;;;;;;;52.92;27.55;;;3.80;99.90;;;;;;4998156;28;20144;-78
2021/03/21 00:51:12;;;;;;;57.83;29.13;;;3.80;99.90;;;;;;4981251;28;20150;-78
2021/03/21 00:53:39;;;;;;;50.83;23.67;;;3.90;99.90;;;;;;5013771;28;20119;-78
2021/03/21 00:56:06;;;;;;;47.53;26.80;;;3.90;99.90;;;;;;4995611;28;20426;-79
2021/03/21 00:58:34;;;;;;;48.05;26.38;;;3.90;99.90;;;;;;4998184;28;20108;-79
2021/03/21 01:01:01;;;;;;;46.90;24.63;;;3.80;99.90;;;;;;4997067;28;20053;-79
2021/03/21 01:03:28;;;;;;;51.83;26.40;;;3.80;99.90;;;;;;5031338;28;20138;-78
2021/03/21 01:06:02;;;;;;;53.88;27.42;;;3.90;99.90;;;;;;4997444;28;20050;-78
2021/03/21 01:08:32;;;;;;;48.88;23.85;;;3.80;99.90;;;;;;4981157;28;20050;-78
2021/03/21 01:11:12;;;;;;;42.15;22.42;;;3.80;99.90;;;;;;4996440;28;20403;-76
2021/03/21 01:13:39;;;;;;;32.25;17.80;;;3.80;99.90;;;;;;5012564;28;20066;-78
2021/03/21 01:16:08;;;;;;;34.90;18.92;;;3.80;99.90;;;;;;4995152;28;20145;-78
2021/03/21 01:18:37;;;;;;;40.30;20.98;;;3.80;99.90;;;;;;5011261;28;20090;-78
2021/03/21 01:21:05;;;;;;;40.35;21.67;;;3.80;99.90;;;;;;5010872;28;20041;-77
2021/03/21 01:23:32;;;;;;;39.10;19.75;;;3.80;99.90;;;;;;5005682;28;20060;-78
2021/03/21 01:25:58;;;;;;;45.40;23.88;;;3.80;99.90;;;;;;5006929;28;20151;-76
2021/03/21 01:28:31;;;;;;;46.70;24.58;;;3.80;99.90;;;;;;4992728;28;20081;-77
2021/03/21 01:31:00;;;;;;;39.13;20.05;;;3.80;99.90;;;;;;5009145;28;20053;-77
2021/03/21 01:33:29;;;;;;;38.10;18.92;;;3.70;99.90;;;;;;4993901;28;20092;-77
2021/03/21 01:35:56;;;;;;;36.72;19.70;;;3.70;99.90;;;;;;5008867;28;20046;-77
2021/03/21 01:38:22;;;;;;;37.70;18.85;;;3.70;99.90;;;;;;4992145;28;20046;-77
2021/03/21 01:40:59;;;;;;;39.05;20.70;;;3.80;99.90;;;;;;5009312;28;20054;-77
2021/03/21 01:43:37;;;;;;;40.80;20.63;;;3.80;99.90;;;;;;4993757;28;20052;-77
2021/03/21 01:46:05;;;;;;;40.25;18.35;;;3.80;99.90;;;;;;4991248;28;20124;-79
2021/03/21 01:48:43;;;;;;;38.42;18.80;;;3.80;99.90;;;;;;5008105;28;20498;-78
2021/03/21 01:51:27;;;;;;;43.92;21.17;;;3.80;99.90;;;;;;4974452;28;20054;-77
2021/03/21 01:53:57;;;;;;;46.33;21.42;;;3.80;99.90;;;;;;4988138;28;20050;-79
2021/03/21 01:56:26;;;;;;;50.33;23.00;;;3.80;99.90;;;;;;4985485;28;20140;-77
2021/03/21 01:59:02;;;;;;;36.97;18.65;;;3.80;99.90;;;;;;5008180;28;20140;-76
2021/03/21 02:01:29;;;;;;;55.65;24.90;;;3.80;99.90;;;;;;4990443;28;20066;-76
2021/03/21 02:03:58;;;;;;;50.47;21.27;;;3.80;99.90;;;;;;5007690;28;20090;-76
2021/03/21 02:06:36;;;;;;;47.20;22.92;;;3.80;99.90;;;;;;4991825;28;20115;-76
2021/03/21 02:09:40;;;;;;;46.45;21.92;;;3.80;99.90;;;;;;4975723;28;20620;-76
2021/03/21 02:12:41;;;;;;;52.53;22.75;;;3.80;99.90;;;;;;4990694;28;20266;-77
2021/03/21 02:15:10;;;;;;;53.42;25.15;;;3.80;99.90;;;;;;5008386;28;20061;-76
2021/03/21 02:17:45;;;;;;;58.13;26.02;;;3.80;99.90;;;;;;4969977;28;20066;-77
2021/03/21 02:21:03;;;;;;;46.55;21.77;;;3.80;99.90;;;;;;4979645;28;20054;-77
2021/03/21 02:23:54;;;;;;;40.40;21.10;;;3.80;99.90;;;;;;4962031;28;20473;-77
2021/03/21 02:26:58;;;;;;;53.78;22.42;;;3.80;99.90;;;;;;4991758;28;20050;-77
2021/03/21 02:29:52;;;;;;;48.45;23.35;;;3.80;99.90;;;;;;4990782;28;20045;-76
2021/03/21 02:32:27;;;;;;;58.13;23.90;;;3.90;99.90;;;;;;4990990;28;20165;-77
2021/03/21 02:35:06;;;;;;;41.25;18.95;;;3.90;99.90;;;;;;4986007;28;20130;-76
2021/03/21 02:37:35;;;;;;;41.20;17.75;;;3.90;99.90;;;;;;4955924;28;20054;-77
2021/03/21 02:40:18;;;;;;;39.33;16.58;;;3.90;99.90;;;;;;4952790;28;20169;-76
2021/03/21 02:42:54;;;;;;;50.42;20.70;;;3.90;99.90;;;;;;4939516;28;20050;-76
2021/03/21 02:45:26;;;;;;;46.22;19.38;;;3.80;99.90;;;;;;4988748;28;20042;-76
2021/03/21 02:47:56;;;;;;;49.10;20.33;;;3.80;99.90;;;;;;4970578;28;20137;-76
2021/03/21 02:50:29;;;;;;;52.40;21.60;;;3.80;99.90;;;;;;4982721;28;20051;-77
2021/03/21 02:53:06;;;;;;;53.38;21.63;;;3.80;99.90;;;;;;4970533;28;20386;-76
2021/03/21 02:55:43;;;;;;;56.53;20.73;;;3.80;99.90;;;;;;4938285;28;20046;-76
2021/03/21 02:58:22;;;;;;;51.72;19.60;;;3.90;99.90;;;;;;4987112;28;20054;-75
2021/03/21 03:00:55;;;;;;;48.03;18.75;;;3.80;99.90;;;;;;5004980;28;20038;-76
2021/03/21 03:03:24;;;;;;;37.88;17.58;;;3.90;99.90;;;;;;4943826;28;20049;-76
2021/03/21 03:05:54;;;;;;;30.45;14.20;;;3.90;99.90;;;;;;4975563;28;20538;-76
2021/03/21 03:08:34;;;;;;;43.45;18.30;;;3.90;99.90;;;;;;4989895;28;20137;-76
2021/03/21 03:11:06;;;;;;;39.70;17.13;;;3.90;99.90;;;;;;5005791;28;20136;-76
2021/03/21 03:13:46;;;;;;;42.50;16.40;;;3.90;99.90;;;;;;4973313;28;20108;-76
2021/03/21 03:16:22;;;;;;;38.88;17.27;;;3.90;99.90;;;;;;4964735;28;20604;-76
2021/03/21 03:19:21;;;;;;;42.63;16.73;;;3.90;99.90;;;;;;4953100;28;20072;-76
2021/03/21 03:21:50;;;;;;;42.10;16.05;;;3.90;99.90;;;;;;4935361;28;20129;-76
2021/03/21 03:24:34;;;;;;;42.67;16.75;;;3.90;99.90;;;;;;4986678;28;20518;-76
2021/03/21 03:27:12;;;;;;;42.13;17.48;;;3.90;99.90;;;;;;4954482;28;20089;-76
2021/03/21 03:29:50;;;;;;;45.90;18.45;;;3.90;99.90;;;;;;4954842;28;20129;-76
2021/03/21 03:32:17;;;;;;;66.93;20.20;;;3.90;99.90;;;;;;4955567;28;20531;-76
2021/03/21 03:34:50;;;;;;;78.65;22.48;;;3.90;99.90;;;;;;4975062;28;20073;-76
2021/03/21 03:37:17;;;;;;;121.60;27.98;;;3.90;99.90;;;;;;4941285;28;20137;-76
2021/03/21 03:39:43;;;;;;;220.30;34.03;;;3.90;99.90;;;;;;4974137;28;20058;-77
2021/03/21 03:42:47;;;;;;;43.67;18.95;;;3.90;99.90;;;;;;4957239;28;20109;-76
2021/03/21 03:45:36;;;;;;;54.13;19.00;;;3.90;99.90;;;;;;4973770;28;20389;-76
2021/03/21 03:48:12;;;;;;;36.58;14.73;;;3.90;99.90;;;;;;4974951;28;20563;-76
2021/03/21 03:51:02;;;;;;;38.05;14.90;;;3.90;99.90;;;;;;4968912;28;20050;-76
2021/03/21 03:53:47;;;;;;;39.90;16.25;;;3.90;99.90;;;;;;4986340;28;20046;-77
2021/03/21 03:56:22;;;;;;;56.13;18.63;;;3.90;99.90;;;;;;4978238;28;20085;-76
2021/03/21 03:59:03;;;;;;;41.78;15.70;;;3.90;99.90;;;;;;5007205;28;20299;-76
2021/03/21 04:01:33;;;;;;;45.63;16.25;;;3.90;99.90;;;;;;4956516;28;20052;-76
2021/03/21 04:04:30;;;;;;;38.17;14.35;;;3.90;99.90;;;;;;4953629;28;20046;-75
2021/03/21 04:07:06;;;;;;;37.38;14.77;;;3.90;99.90;;;;;;4996645;28;20081;-75
2021/03/21 04:09:41;;;;;;;32.17;13.82;;;4.00;99.90;;;;;;4985749;28;20057;-76
2021/03/21 04:12:10;;;;;;;;;;;4.00;99.90;;;;;;4989470;28;20049;-77
2021/03/21 04:14:41;;;;;;;45.03;14.20;;;4.00;99.90;;;;;;5005754;28;20473;-75
2021/03/21 04:17:34;;;;;;;37.55;13.65;;;3.90;99.90;;;;;;4988406;28;20157;-75
2021/03/21 04:20:24;;;;;;;35.08;13.48;;;4.00;99.90;;;;;;5006116;28;20065;-76
2021/03/21 04:22:59;;;;;;;27.02;11.07;;;4.00;99.90;;;;;;4977457;28;20047;-76
2021/03/21 04:25:31;;;;;;;28.50;10.63;;;4.00;99.90;;;;;;4996659;28;20054;-76
2021/03/21 04:28:01;;;;;;;32.55;11.65;;;4.00;99.90;;;;;;4999045;28;20458;-76
2021/03/21 04:30:36;;;;;;;49.42;15.07;;;4.00;99.90;;;;;;4995007;28;20042;-76
2021/03/21 04:33:08;;;;;;;36.70;13.95;;;4.00;99.90;;;;;;5000480;28;20049;-76
2021/03/21 04:35:46;;;;;;;46.25;14.90;;;4.10;99.90;;;;;;4985943;28;20103;-76
2021/03/21 04:38:31;;;;;;;69.75;17.85;;;4.10;99.90;;;;;;4998558;28;20121;-75
2021/03/21 04:40:59;;;;;;;162.93;24.63;;;4.10;99.90;;;;;;5001855;28;20073;-78
2021/03/21 04:43:42;;;;;;;171.43;25.35;;;4.10;99.90;;;;;;4986955;28;20056;-77
2021/03/21 04:46:18;;;;;;;250.95;31.25;;;4.10;99.90;;;;;;5003094;28;20502;-76
2021/03/21 04:48:44;;;;;;;229.00;24.92;;;4.10;99.90;;;;;;4971849;28;20418;-76
2021/03/21 04:51:18;;;;;;;176.38;28.52;;;4.10;99.90;;;;;;4987260;28;20092;-76
2021/03/21 04:54:17;;;;;;;65.30;16.75;;;4.10;99.90;;;;;;4998671;28;20062;-76
2021/03/21 04:56:58;;;;;;;84.80;18.52;;;4.10;99.90;;;;;;4984477;28;20146;-76
2021/03/21 04:59:29;;;;;;;33.40;9.35;;;4.10;99.90;;;;;;4972796;28;20089;-76
2021/03/21 05:02:04;;;;;;;27.05;9.45;;;4.10;99.90;;;;;;4971212;28;20050;-76
2021/03/21 05:04:36;;;;;;;22.42;8.38;;;4.10;99.90;;;;;;5009213;28;20058;-76
2021/03/21 05:07:21;;;;;;;20.45;7.05;;;4.10;99.90;;;;;;5002660;28;20064;-76
2021/03/21 05:09:56;;;;;;;27.30;7.63;;;4.10;99.90;;;;;;4988050;28;20453;-77
2021/03/21 05:12:32;;;;;;;16.67;5.65;;;4.10;99.90;;;;;;4987323;28;20054;-76
2021/03/21 05:15:06;;;;;;;16.95;7.15;;;4.10;99.90;;;;;;5003608;28;20083;-76
2021/03/21 05:17:56;;;;;;;31.23;8.45;;;4.20;99.90;;;;;;5022226;28;20136;-75
2021/03/21 05:20:41;;;;;;;20.73;6.85;;;4.20;99.90;;;;;;5022343;28;20168;-75
2021/03/21 05:23:29;;;;;;;18.42;6.40;;;4.10;99.90;;;;;;4997036;28;20054;-76
2021/03/21 05:26:00;;;;;;;17.98;7.07;;;4.10;99.90;;;;;;4993926;28;20105;-76
2021/03/21 05:28:38;;;;;;;22.75;8.43;;;4.20;99.90;;;;;;4995689;28;20066;-76
2021/03/21 05:31:04;;;;;;;22.75;7.40;;;4.20;99.90;;;;;;5003079;28;20161;-75
2021/03/21 05:33:31;;;;;;;34.53;10.15;;;4.20;99.90;;;;;;4989120;28;20128;-75
2021/03/21 05:36:04;;;;;;;76.07;14.52;;;4.10;99.90;;;;;;5005463;28;20137;-76
2021/03/21 05:38:52;;;;;;;91.57;14.63;;;4.20;99.90;;;;;;5001284;28;20060;-76
2021/03/21 05:41:56;;;;;;;33.72;10.10;;;4.20;99.90;;;;;;4994183;28;20034;-77
2021/03/21 05:44:41;;;;;;;19.33;7.43;;;4.20;99.90;;;;;;4990042;28;20592;-76
2021/03/21 05:47:35;;;;;;;20.13;7.82;;;4.20;99.90;;;;;;4989788;28;20462;-76
2021/03/21 05:50:39;;;;;;;25.25;8.18;;;4.20;99.90;;;;;;5000233;28;20125;-77
2021/03/21 05:53:08;;;;;;;25.98;9.73;;;4.20;99.90;;;;;;4976091;28;20626;-76
2021/03/21 05:55:59;;;;;;;40.65;10.82;;;4.20;99.90;;;;;;5000318;28;20602;-75
2021/03/21 05:59:00;;;;;;;146.50;24.08;;;4.20;99.90;;;;;;4997790;28;20593;-76
2021/03/21 06:01:58;;;;;;;72.82;21.17;;;4.20;99.90;;;;;;4976899;28;20047;-76
2021/03/21 06:04:46;;;;;;;20.67;8.95;;;4.20;99.90;;;;;;4987318;28;20050;-76
2021/03/21 06:07:27;;;;;;;25.70;11.30;;;4.20;99.90;;;;;;4968516;28;20049;-77
2021/03/21 06:10:26;;;;;;;17.20;9.57;;;4.30;99.90;;;;;;5026080;28;20124;-75
2021/03/21 06:13:27;;;;;;;14.80;8.32;;;4.30;99.90;;;;;;5026284;28;20156;-76
2021/03/21 06:16:06;;;;;;;15.77;7.38;;;4.30;99.90;;;;;;4991659;28;20058;-77
2021/03/21 06:19:10;;;;;;;17.58;8.98;;;4.30;99.90;;;;;;4989869;28;20038;-78
2021/03/21 06:22:25;;;;;;;17.10;7.97;;;4.30;99.90;;;;;;4989181;28;20065;-76
2021/03/21 06:25:17;;;;;;;16.45;8.02;;;4.40;99.90;;;;;;4932669;28;20102;-76
2021/03/21 06:28:17;;;;;;;17.00;8.98;;;4.40;99.90;;;;;;4949839;28;20097;-77
2021/03/21 06:30:50;;;;;;;18.40;9.45;;;4.50;99.90;;;;;;4979408;28;20056;-77
2021/03/21 06:33:21;;;;;;;18.35;10.23;;;4.50;99.90;;;;;;4987765;28;20058;-77
2021/03/21 06:36:19;;;;;;;17.42;10.50;;;4.50;99.90;;;;;;4991343;28;20576;-77
2021/03/21 06:39:07;;;;;;;16.92;9.57;;;4.50;99.90;;;;;;5008033;28;20096;-78
2021/03/21 06:42:18;;;;;;;18.65;10.68;;;4.50;99.90;;;;;;5008371;28;20053;-78
2021/03/21 06:45:16;;;;;;;18.92;10.68;;;4.50;99.90;;;;;;5008909;28;20150;-78
2021/03/21 06:48:04;;;;;;;17.30;9.50;;;4.50;99.90;;;;;;5001107;28;20141;-77
2021/03/21 06:50:40;;;;;;;18.15;9.00;;;4.50;99.90;;;;;;4986991;28;20049;-76
2021/03/21 06:53:34;;;;;;;16.67;9.63;;;4.50;99.90;;;;;;5004024;28;20051;-76
2021/03/21 06:56:30;;;;;;;14.02;8.45;;;4.60;99.90;;;;;;4990444;28;20241;-77
2021/03/21 06:59:06;;;;;;;15.63;8.80;;;4.50;99.90;;;;;;5001256;28;20684;-76
2021/03/21 07:02:21;;;;;;;15.75;8.45;;;4.50;99.90;;;;;;5002144;28;20046;-78
2021/03/21 07:05:09;;;;;;;18.13;8.35;;;4.50;99.90;;;;;;4986703;28;20056;-77
2021/03/21 07:08:13;;;;;;;13.77;7.47;;;4.40;99.90;;;;;;4952663;28;20430;-76
2021/03/21 07:10:55;;;;;;;15.13;8.23;;;4.50;99.90;;;;;;4985262;28;20534;-77
2021/03/21 07:13:21;;;;;;;14.23;8.38;;;4.50;99.90;;;;;;4967255;28;20144;-76
2021/03/21 07:16:12;;;;;;;15.85;8.18;;;4.50;99.90;;;;;;4968932;28;20085;-77
2021/03/21 07:19:09;;;;;;;14.40;7.97;;;4.60;99.90;;;;;;4983069;28;20503;-76
2021/03/21 07:22:16;;;;;;;12.60;6.57;;;4.50;99.90;;;;;;4967025;28;20055;-76
2021/03/21 07:24:55;;;;;;;15.10;5.70;;;4.60;99.90;;;;;;4949389;28;20141;-75
2021/03/21 07:27:48;;;;;;;10.75;6.20;;;4.60;99.90;;;;;;4951621;28;20130;-76
2021/03/21 07:30:33;;;;;;;10.07;5.72;;;4.60;99.90;;;;;;4997814;28;20157;-75
2021/03/21 07:33:13;;;;;;;9.65;4.97;;;4.60;99.90;;;;;;4951568;28;20054;-76
2021/03/21 07:35:48;;;;;;;9.73;4.50;;;4.60;99.90;;;;;;4969007;28;20057;-75
2021/03/21 07:38:45;;;;;;;7.93;4.93;;;4.60;99.90;;;;;;4952953;28;20153;-75
2021/03/21 07:41:30;;;;;;;8.57;5.07;;;4.80;99.90;;;;;;4947890;28;20080;-76
2021/03/21 07:44:06;;;;;;;8.30;4.28;;;4.80;99.90;;;;;;4983654;28;20474;-76
2021/03/21 07:46:51;;;;;;;7.35;4.45;;;4.70;99.90;;;;;;4968620;28;20808;-76
2021/03/21 07:49:51;;;;;;;8.75;4.80;;;4.70;99.90;;;;;;4953651;28;20046;-75
2021/03/21 07:52:43;;;;;;;9.32;4.95;;;4.60;99.90;;;;;;5007581;28;20151;-77
2021/03/21 07:55:18;;;;;;;8.63;4.70;;;4.60;99.90;;;;;;4953302;28;20054;-77
2021/03/21 07:57:51;;;;;;;6.35;3.80;;;4.60;99.90;;;;;;4972714;28;20188;-76
2021/03/21 08:00:17;;;;;;;8.25;4.95;;;4.60;99.90;;;;;;4988728;28;20065;-77
2021/03/21 08:03:07;;;;;;;10.18;5.32;;;4.60;99.90;;;;;;4988652;28;20050;-77
2021/03/21 08:05:34;;;;;;;14.18;5.40;;;4.70;99.90;;;;;;4983000;28;20043;-76
2021/03/21 08:08:01;;;;;;;9.30;5.63;;;4.80;99.90;;;;;;4982338;28;20332;-76
2021/03/21 08:10:35;;;;;;;8.48;4.93;;;4.80;99.90;;;;;;4982702;28;20538;-75
2021/03/21 08:13:14;;;;;;;6.88;4.00;;;4.80;99.90;;;;;;4966555;28;20054;-76
2021/03/21 08:15:41;;;;;;;6.88;4.53;;;4.80;99.90;;;;;;4978080;28;20054;-77
2021/03/21 08:18:17;;;;;;;7.50;3.40;;;4.90;99.90;;;;;;4982317;28;20064;-76
2021/03/21 08:21:11;;;;;;;11.55;4.60;;;4.80;99.90;;;;;;4963634;28;20129;-77
2021/03/21 08:23:40;;;;;;;20.08;6.20;;;4.70;99.90;;;;;;4936051;28;20047;-76
2021/03/21 08:26:13;;;;;;;12.35;6.00;;;4.60;99.90;;;;;;4963522;28;20064;-76
2021/03/21 08:28:59;;;;;;;16.27;5.57;;;4.60;99.90;;;;;;4984762;28;20062;-76
2021/03/21 08:31:30;;;;;;;;;;;4.50;99.90;;;;;;4954390;28;20116;-77
2021/03/21 08:34:36;;;;;;;14.98;6.40;;;4.60;99.90;;;;;;4987231;28;20390;-77
2021/03/21 08:37:17;;;;;;;15.55;6.30;;;4.70;99.90;;;;;;4971325;28;20112;-77
2021/03/21 08:39:48;;;;;;;11.25;5.50;;;4.80;99.90;;;;;;4990938;28;20284;-75
2021/03/21 08:42:27;;;;;;;14.40;8.80;;;4.90;99.90;;;;;;4993207;28;20053;-78
2021/03/21 08:45:12;;;;;;;9.85;5.30;;;5.10;99.90;;;;;;4992788;28;20077;-76
2021/03/21 08:47:40;;;;;;;13.23;7.00;;;5.00;99.90;;;;;;4976272;28;20076;-76
2021/03/21 08:50:28;;;;;;;9.63;6.97;;;4.90;99.90;;;;;;4965009;28;20140;-77
2021/03/21 08:52:55;;;;;;;16.73;7.38;;;4.80;99.90;;;;;;4981697;28;20061;-77
2021/03/21 08:55:33;;;;;;;15.40;6.82;;;4.80;99.90;;;;;;4972004;28;20042;-77
2021/03/21 08:58:24;;;;;;;17.42;6.95;;;4.80;99.90;;;;;;4977589;28;20141;-76
2021/03/21 09:00:50;;;;;;;9.45;6.45;;;4.70;99.90;;;;;;4979576;28;20645;-79
2021/03/21 09:03:37;;;;;;;10.52;5.88;;;4.90;99.90;;;;;;4969847;28;20038;-78
2021/03/21 09:06:04;;;;;;;14.77;6.53;;;5.00;99.90;;;;;;4963460;28;20529;-77
2021/03/21 09:08:36;;;;;;;18.75;7.88;;;5.00;99.90;;;;;;4956583;28;20051;-77
2021/03/21 09:11:05;;;;;;;9.15;7.28;;;5.00;99.90;;;;;;4944742;28;20058;-76
2021/03/21 09:13:36;;;;;;;23.02;9.05;;;5.00;99.90;;;;;;4962913;28;20042;-77
2021/03/21 09:16:11;;;;;;;24.95;9.63;;;5.10;99.90;;;;;;4978626;28;20053;-76
2021/03/21 09:18:41;;;;;;;16.52;9.90;;;5.00;99.90;;;;;;4993000;28;20054;-78
2021/03/21 09:21:19;;;;;;;16.15;9.00;;;4.90;99.90;;;;;;4983432;28;20132;-77
2021/03/21 09:24:02;;;;;;;18.17;8.88;;;5.00;99.90;;;;;;5007375;28;20177;-76
2021/03/21 09:26:39;;;;;;;28.05;9.77;;;5.00;99.90;;;;;;4992543;28;20498;-77
2021/03/21 09:29:15;;;;;;;24.98;9.20;;;5.00;99.90;;;;;;4972176;28;20096;-77
2021/03/21 09:31:42;;;;;;;10.80;8.52;;;5.10;99.90;;;;;;4962110;28;20536;-75
2021/03/21 09:34:09;;;;;;;15.80;8.32;;;5.10;99.90;;;;;;4955611;28;20190;-75
2021/03/21 09:36:49;;;;;;;17.88;8.85;;;5.10;99.90;;;;;;4955403;28;20070;-75
2021/03/21 09:39:30;;;;;;;12.90;8.30;;;5.20;99.90;;;;;;4955765;28;20108;-76
2021/03/21 09:41:57;;;;;;;16.67;8.38;;;5.30;99.90;;;;;;4971824;28;20090;-77
2021/03/21 09:44:40;;;;;;;16.58;8.20;;;5.20;99.90;;;;;;4972296;28;20129;-76
2021/03/21 09:47:25;;;;;;;17.65;8.90;;;5.20;99.90;;;;;;4957337;28;20045;-78
2021/03/21 09:50:11;;;;;;;24.15;9.82;;;5.10;99.90;;;;;;4954818;28;20047;-77
2021/03/21 09:53:07;;;;;;;18.65;8.02;;;5.20;99.90;;;;;;4991460;28;20722;-77
2021/03/21 09:55:50;;;;;;;21.70;8.27;;;5.10;99.90;;;;;;4985442;28;20058;-77
2021/03/21 09:58:19;;;;;;;28.23;8.80;;;5.10;99.90;;;;;;4977674;28;20178;-75
2021/03/21 10:01:26;;;;;;;16.63;8.68;;;5.20;99.90;;;;;;5009333;28;20117;-76
2021/03/21 10:04:00;;;;;;;14.32;8.10;;;5.20;99.90;;;;;;4933158;28;20132;-78
2021/03/21 10:06:35;;;;;;;30.55;10.75;;;5.10;99.90;;;;;;4996711;28;20495;-77
2021/03/21 10:09:18;;;;;;;38.10;10.00;;;4.90;99.90;;;;;;4965809;28;20112;-77
2021/03/21 10:11:58;;;;;;;22.60;8.85;;;4.70;99.90;;;;;;4990779;28;20050;-77
2021/03/21 10:14:25;;;;;;;20.75;9.20;;;4.70;99.90;;;;;;4988337;28;20081;-78
2021/03/21 10:17:17;;;;;;;21.60;9.30;;;4.70;99.90;;;;;;4983322;28;20086;-78
2021/03/21 10:19:55;;;;;;;27.55;9.20;;;4.80;99.90;;;;;;4994236;28;20788;-77
2021/03/21 10:22:25;;;;;;;32.15;10.63;;;4.70;99.90;;;;;;5005217;28;20514;-77
2021/03/21 10:24:57;;;;;;;37.15;10.43;;;4.70;99.90;;;;;;5009149;28;20100;-76
2021/03/21 10:27:32;;;;;;;29.20;12.15;;;4.60;99.90;;;;;;5008161;28;20133;-76
2021/03/21 10:30:19;;;;;;;40.47;12.85;;;4.70;99.90;;;;;;4991937;28;20110;-76
2021/03/21 10:33:00;;;;;;;37.58;11.35;;;4.60;99.90;;;;;;5008677;28;20136;-78
2021/03/21 10:35:32;;;;;;;24.08;10.70;;;4.60;99.90;;;;;;4979274;28;20050;-78
2021/03/21 10:38:06;;;;;;;34.03;11.57;;;4.80;99.90;;;;;;4994502;28;20058;-78
2021/03/21 10:40:32;;;;;;;43.60;15.57;;;4.80;99.90;;;;;;5027273;28;20050;-77
2021/03/21 10:43:02;;;;;;;22.38;12.77;;;4.80;99.90;;;;;;4976857;28;20042;-76
2021/03/21 10:45:34;;;;;;;44.80;14.43;;;4.90;99.90;;;;;;4990378;28;20081;-77
2021/03/21 10:48:29;;;;;;;32.65;12.10;;;4.90;99.90;;;;;;4994071;28;20514;-77
2021/03/21 10:51:00;;;;;;;38.33;13.82;;;4.90;99.90;;;;;;4981937;28;20135;-77
2021/03/21 10:53:48;;;;;;;18.52;11.43;;;4.80;99.90;;;;;;5007025;28;20145;-79
2021/03/21 10:56:26;;;;;;;28.65;13.50;;;4.80;99.90;;;;;;4988654;28;20129;-77
2021/03/21 10:59:07;;;;;;;33.88;13.77;;;4.70;99.90;;;;;;4980724;28;20335;-78
2021/03/21 11:01:36;;;;;;;30.60;13.70;;;4.70;99.90;;;;;;4990970;28;20231;-77
2021/03/21 11:04:15;;;;;;;28.67;12.68;;;4.90;99.90;;;;;;5005810;28;20499;-77
2021/03/21 11:07:18;;;;;;;36.97;14.60;;;5.10;99.90;;;;;;4979973;28;20042;-77
2021/03/21 11:10:07;;;;;;;48.65;15.32;;;5.10;99.90;;;;;;4997655;28;20104;-77
2021/03/21 11:12:38;;;;;;;30.20;13.27;;;5.30;99.90;;;;;;5001800;28;20155;-77
2021/03/21 11:15:33;;;;;;;41.67;14.77;;;5.40;99.90;;;;;;4995261;28;20047;-78
2021/03/21 11:18:18;;;;;;;31.10;13.52;;;5.40;99.90;;;;;;5009708;28;20057;-77
2021/03/21 11:20:45;;;;;;;45.40;15.95;;;5.50;99.90;;;;;;4999963;28;20042;-78
2021/03/21 11:23:23;;;;;;;31.10;14.27;;;5.50;99.90;;;;;;4992264;28;20077;-78
2021/03/21 11:25:50;;;;;;;28.08;14.32;;;5.50;99.90;;;;;;5005056;28;20042;-78
2021/03/21 11:28:38;;;;;;;23.05;12.82;;;5.70;99.90;;;;;;4978408;28;20042;-78
2021/03/21 11:31:08;;;;;;;32.10;12.32;;;5.80;99.90;;;;;;4953144;28;20283;-82
2021/03/21 11:33:45;;;;;;;25.73;13.88;;;5.90;99.90;;;;;;4969572;28;20054;-77
2021/03/21 11:36:30;;;;;;;32.03;15.57;;;5.70;99.90;;;;;;4969423;28;20050;-76
2021/03/21 11:39:10;;;;;;;39.30;16.45;;;5.60;99.90;;;;;;4998656;28;20133;-80
2021/03/21 11:41:39;;;;;;;29.67;13.90;;;5.70;99.90;;;;;;4997207;28;20052;-77
2021/03/21 11:44:10;;;;;;;25.63;14.50;;;5.80;99.90;;;;;;4989649;28;20676;-77
2021/03/21 11:46:36;;;;;;;40.60;15.02;;;5.70;99.90;;;;;;4989942;28;20722;-78
2021/03/21 11:49:03;;;;;;;21.90;13.75;;;5.90;99.90;;;;;;5004689;28;20042;-77
2021/03/21 11:51:31;;;;;;;30.48;15.52;;;6.10;99.90;;;;;;4990268;28;20675;-77
2021/03/21 11:53:57;;;;;;;32.08;16.75;;;6.10;99.90;;;;;;4988755;28;20049;-77
2021/03/21 11:56:38;;;;;;;36.80;16.35;;;5.90;99.90;;;;;;4988356;28;20053;-76
2021/03/21 11:59:15;;;;;;;35.58;14.60;;;5.80;99.90;;;;;;5002097;28;20073;-78
2021/03/21 12:01:47;;;;;;;30.95;14.82;;;5.80;99.90;;;;;;4991218;28;20088;-78
2021/03/21 12:04:35;;;;;;;32.97;14.10;;;5.90;99.90;;;;;;4989541;28;20262;-79
2021/03/21 12:07:02;;;;;;;33.72;14.70;;;5.90;99.90;;;;;;5011988;28;20105;-79
2021/03/21 12:09:32;;;;;;;34.78;15.43;;;6.00;99.90;;;;;;4989232;28;20048;-76
2021/03/21 12:12:05;;;;;;;45.55;16.20;;;5.90;99.90;;;;;;5007686;28;20687;-77
2021/03/21 12:14:31;;;;;;;32.88;14.93;;;5.80;99.90;;;;;;5009970;28;20058;-77
2021/03/21 12:17:00;;;;;;;24.73;15.60;;;5.80;99.90;;;;;;5000333;28;20061;-78
2021/03/21 12:19:35;;;;;;;28.77;14.82;;;5.90;99.90;;;;;;4993361;28;20156;-78
2021/03/21 12:22:28;;;;;;;32.05;15.25;;;5.90;99.90;;;;;;5002876;28;20073;-78
2021/03/21 12:24:57;;;;;;;29.02;14.50;;;5.90;99.90;;;;;;5009639;28;20501;-77
2021/03/21 12:27:38;;;;;;;50.55;15.95;;;6.00;99.90;;;;;;4988251;28;20038;-78
2021/03/21 12:30:34;;;;;;;28.35;15.27;;;6.10;99.90;;;;;;4986697;28;20092;-78
2021/03/21 12:33:27;;;;;;;33.72;15.65;;;6.20;99.90;;;;;;5003660;28;20234;-77
2021/03/21 12:36:03;;;;;;;32.85;14.02;;;6.00;99.90;;;;;;4995820;28;20104;-78
2021/03/21 12:38:39;;;;;;;39.72;14.55;;;6.00;99.90;;;;;;4991619;28;20086;-77
2021/03/21 12:41:33;;;;;;;35.35;14.32;;;6.00;99.90;;;;;;4975346;28;20116;-77
2021/03/21 12:44:23;;;;;;;36.28;14.45;;;6.00;99.90;;;;;;5008733;28;20057;-78
2021/03/21 12:46:57;;;;;;;29.80;15.30;;;6.10;99.90;;;;;;4996904;28;20052;-77
2021/03/21 12:49:37;;;;;;;37.67;15.38;;;6.30;99.90;;;;;;4995046;28;20050;-79
2021/03/21 12:52:17;;;;;;;39.97;15.25;;;6.30;99.90;;;;;;4978042;28;20526;-78
2021/03/21 12:54:45;;;;;;;44.70;15.30;;;6.20;99.90;;;;;;4994604;28;20048;-78
2021/03/21 12:57:13;;;;;;;29.20;15.77;;;6.20;99.90;;;;;;4993634;28;20084;-79
2021/03/21 12:59:41;;;;;;;31.92;15.40;;;6.50;99.90;;;;;;4979102;28;20133;-78
2021/03/21 13:02:20;;;;;;;43.35;15.65;;;6.80;99.90;;;;;;4986734;28;20058;-77
2021/03/21 13:04:46;;;;;;;31.85;14.48;;;7.00;99.90;;;;;;5025290;28;20077;-77
2021/03/21 13:07:13;;;;;;;40.90;16.67;;;6.90;99.90;;;;;;4986546;28;20050;-79
2021/03/21 13:09:40;;;;;;;21.52;13.88;;;6.90;99.90;;;;;;4988935;28;20113;-79
2021/03/21 13:12:08;;;;;;;23.75;14.35;;;6.90;99.90;;;;;;4986725;28;20108;-78
2021/03/21 13:14:34;;;;;;;43.05;16.08;;;6.80;99.90;;;;;;4988766;28;20601;-78
2021/03/21 13:17:01;;;;;;;43.95;17.42;;;6.70;99.90;;;;;;4959448;28;20057;-79
2021/03/21 13:19:27;;;;;;;59.80;16.50;;;6.50;99.90;;;;;;4973653;28;20073;-78
2021/03/21 13:21:54;;;;;;;36.88;16.77;;;6.60;99.90;;;;;;5006507;28;20050;-79
2021/03/21 13:24:20;;;;;;;31.40;16.42;;;6.70;99.90;;;;;;4966879;28;20050;-77
2021/03/21 13:26:47;;;;;;;37.40;14.75;;;6.70;99.90;;;;;;4975696;28;20051;-78
2021/03/21 13:29:13;;;;;;;44.80;15.43;;;6.50;99.90;;;;;;4956374;28;20054;-78
2021/03/21 13:31:39;;;;;;;30.70;15.63;;;6.60;99.90;;;;;;4985937;28;20046;-78
2021/03/21 13:34:06;;;;;;;35.58;14.63;;;6.70;99.90;;;;;;4976593;28;20038;-80
2021/03/21 13:36:32;;;;;;;31.70;14.45;;;6.60;99.90;;;;;;4993406;28;20148;-78